• Join FlightAware (Why Join?)
  • Login
  • US Flag 
02:40PM EDT


 

Airport Tracker/Info


-or-


 

Live Flight TrackerFlight Track Log ✈ JUS327 ✈ 06-May-2013 ✈ KYIP - KLEX

Flight Track Log - Related Links

Times and Time Zones

All times are in EDT time to prevent confusion due to time zone crossing. See the JUS327 flight status page for this flight to view local times or setup timezone preferences in your user account.

Time Position Orientation Groundspeed Altitude Reporting Facility
EDT Latitude Longitude Course Direction KTS MPH feet Rate Location/Type
06:53PM 42.2475 -83.5200 10° North 135 155 1,500  Level Cleveland Center
06:54PM 42.2769 -83.5131 10° North 212 244 2,400 2,160 Climbing Cleveland Center
06:56PM 42.1238 -83.5552 143° Southeast  Level Estimated
06:56PM 42.2419 -83.6600 143° Southeast 275 316 7,300  Level Cleveland Center
06:57PM 42.1700 -83.6986 202° Southwest 283 326 10,600 2,460 Climbing Cleveland Center
06:58PM 42.0933 -83.6725 166° South 290 334 12,200 2,160 Climbing Cleveland Center
06:59PM 42.0117 -83.6100 150° Southeast 299 344 15,000 2,820 Climbing Cleveland Center
07:00PM 41.9200 -83.5331 148° Southeast 336 387 17,900 2,280 Climbing Cleveland Center
07:01PM 41.8422 -83.4764 152° Southeast 346 398 19,700 1,620 Climbing Cleveland Center
07:02PM 41.7450 -83.4386 164° South 356 410 21,300 1,860 Climbing Cleveland Center
07:03PM 41.6397 -83.4783 196° South 362 417 23,400 1,980 Climbing Cleveland Center
07:04PM 41.5383 -83.5322 202° Southwest 373 429 25,300 1,800 Climbing Cleveland Center
07:05PM 41.4308 -83.5825 199° South 393 452 27,000 900 Climbing Cleveland Center
07:07PM 41.2072 -83.6772 198° South 418 481 28,000 300 Climbing Cleveland Center
07:08PM 41.0933 -83.7186 195° South 423 487 28,000  Level Cleveland Center
07:11PM 40.7914 -83.8558 199° South 430 495 28,000  Level Indianapolis Center
07:12PM 40.6800 -83.9194 203° Southwest 433 498 28,000  Level Indianapolis Center
07:14PM 40.4539 -84.0292 200° South 432 497 28,000  Level Indianapolis Center
07:15PM 40.3386 -84.0811 199° South 435 501 28,000  Level Indianapolis Center
07:16PM 40.2239 -84.1356 200° South 436 502 28,000  Level Indianapolis Center
07:18PM 39.9744 -84.2586 201° Southwest 441 507 28,000  Level Indianapolis Center
07:19PM 39.8578 -84.3139 200° South 443 510 28,000  Level Indianapolis Center
07:20PM 39.7408 -84.3692 200° South 445 512 28,000  Level Indianapolis Center
07:21PM 39.6239 -84.4244 200° South 445 512 28,000 -780 Level Indianapolis Center
07:22PM 39.5044 -84.4814 200° South 453 521 26,500 -1,500 Descending Indianapolis Center
07:24PM 39.2508 -84.6025 200° South 441 507 23,500 -1,620 Descending Indianapolis Center
07:25PM 39.1364 -84.6544 199° South 433 498 21,600 -1,920 Descending Indianapolis Center
07:26PM 39.0233 -84.7072 200° South 431 496 19,600 -2,160 Descending Indianapolis Center
07:28PM 38.9144 -84.7859 218° Southwest  Level FlightAware Approximate
07:28PM 38.8469 -84.8717 218° Southwest 395 455 15,000  Level Indianapolis Center
07:29PM 38.7567 -84.9178 202° Southwest 362 417 12,600 -2,340 Descending Indianapolis Center
07:30PM 38.6533 -84.8703 160° South 328 377 10,300 -780 Descending Indianapolis Center
07:32PM 38.6122 -85.0348 252° West  Level FlightAware Approximate
07:33PM 38.4094 -84.7806 122° Southeast 295 339 9,500  Level Indianapolis Center
07:34PM 38.3300 -84.7914 186° South 288 331 7,400 -1,980 Descending Indianapolis Center
07:35PM 38.2503 -84.7867 177° South 287 330 5,500 -1,560 Descending Indianapolis Center
07:36PM 38.1753 -84.7764 174° South 282 325 4,300 -1,260 Descending Indianapolis Center
07:37PM 38.0997 -84.7597 170° South 259 298 3,000 -900 Descending Indianapolis Center
07:38PM 38.0475 -84.7194 149° Southeast 236 272 2,500 -300 Descending Indianapolis Center
07:39PM 38.1867 -84.9067 122° Southeast  Level FlightAware Approximate
07:39PM 37.9989 -84.6903 155° Southeast 232 267 2,400  Level Indianapolis Center